Time;durP1;ratioP1;P1;durP2;ratioP2;P2;SDS_P1;SDS_P2;PMS_P1;PMS_P2;Temp;Humidity;BMP_temperature;BMP_pressure;BME280_temperature;BME280_humidity;BME280_pressure;Samples;Min_cycle;Max_cycle;Signal;HPM_P1;HPM_P2
2023/08/08 07:50:40;;;;;;;;;2.67;2.67;;;;;-145.45;100.00;57426.63;4891194;28;45718;-72
2023/08/08 07:53:05;;;;;;;;;4.33;3.33;;;;;-145.45;100.00;57426.63;4901717;29;45766;-71
2023/08/08 07:55:31;;;;;;;;;3.00;2.00;;;;;-145.45;100.00;57426.63;4893873;29;52057;-71
2023/08/08 07:57:56;;;;;;;;;3.50;1.50;;;;;-145.45;100.00;57426.63;4898922;29;45853;-72
2023/08/08 08:00:22;;;;;;;;;1.75;1.00;;;;;-145.45;100.00;57426.63;4898282;29;45490;-72
2023/08/08 08:02:47;;;;;;;;;1.50;1.00;;;;;-145.45;100.00;57426.63;4902519;28;45907;-72
2023/08/08 08:05:13;;;;;;;;;1.75;1.00;;;;;-145.45;100.00;57426.63;4897023;29;45272;-77
2023/08/08 08:07:38;;;;;;;;;2.25;1.75;;;;;-145.45;100.00;57426.63;4900828;29;45527;-74
2023/08/08 08:10:06;;;;;;;;;0.25;0.25;;;;;-145.45;100.00;57426.63;4877799;29;45349;-73
2023/08/08 08:12:32;;;;;;;;;3.00;2.00;;;;;-145.45;100.00;57426.63;4896536;29;45652;-72
2023/08/08 08:14:57;;;;;;;;;2.00;1.00;;;;;-145.45;100.00;57426.63;4894946;29;45523;-73
2023/08/08 08:17:23;;;;;;;;;2.00;1.75;;;;;-145.45;100.00;57426.63;4900798;29;45288;-73
2023/08/08 08:19:52;;;;;;;;;1.75;1.75;;;;;-145.45;100.00;57426.63;4895785;29;45392;-73
2023/08/08 08:22:17;;;;;;;;;0.75;0.75;;;;;-145.45;100.00;57426.63;4898088;29;45485;-73
2023/08/08 08:24:43;;;;;;;;;0.25;0.25;;;;;-145.45;100.00;57426.63;4881949;29;45446;-72
2023/08/08 08:27:08;;;;;;;;;3.00;1.75;;;;;-145.45;100.00;57426.63;4898358;29;45423;-72
2023/08/08 08:29:34;;;;;;;;;2.50;2.00;;;;;-145.45;100.00;57426.63;4896620;29;45423;-72
2023/08/08 08:31:59;;;;;;;;;1.00;1.00;;;;;-145.45;100.00;57426.63;4898323;29;45498;-72
2023/08/08 08:34:24;;;;;;;;;2.00;2.00;;;;;-145.45;100.00;57426.63;4894707;29;45336;-72
2023/08/08 08:36:50;;;;;;;;;1.25;1.25;;;;;-145.45;100.00;57426.63;4900508;29;45397;-73
2023/08/08 08:39:15;;;;;;;;;1.50;0.75;;;;;-145.45;100.00;57426.63;4896778;29;49009;-73
2023/08/08 08:41:40;;;;;;;;;2.75;1.00;;;;;-145.45;100.00;57426.63;4900619;29;45662;-72
2023/08/08 08:44:06;;;;;;;;;1.75;1.00;;;;;-145.45;100.00;57426.63;4895697;29;45453;-72
2023/08/08 08:46:34;;;;;;;;;1.00;1.00;;;;;-145.45;100.00;57426.63;4901095;29;46330;-72
2023/08/08 08:48:59;;;;;;;;;1.80;1.60;;;;;-145.45;100.00;57426.63;4897163;29;45545;-72
2023/08/08 08:51:35;;;;;;;;;2.00;1.00;;;;;;;;5085062;27;45366;-73
2023/08/08 08:54:00;;;;;;;;;1.60;1.00;;;;;;;;5076277;27;45358;-73
2023/08/08 08:56:26;;;;;;;;;1.00;1.00;;;;;;;;5074185;28;45609;-73
2023/08/08 08:58:51;;;;;;;;;1.00;1.00;;;;;;;;5071773;28;46327;-73
2023/08/08 09:01:17;;;;;;;;;1.00;1.00;;;;;;;;5069263;28;46687;-73
2023/08/08 09:03:44;;;;;;;;;0.75;0.75;;;;;;;;5068869;27;45512;-73
2023/08/08 09:06:10;;;;;;;;;1.75;1.00;;;;;;;;5074610;27;45325;-74
2023/08/08 09:08:35;;;;;;;;;1.50;1.50;;;;;;;;5069851;28;45456;-73
2023/08/08 09:11:00;;;;;;;;;1.75;1.00;;;;;;;;5070813;28;46656;-74
2023/08/08 09:13:26;;;;;;;;;0.50;0.50;;;;;;;;5072840;27;45235;-73
2023/08/08 09:15:51;;;;;;;;;1.00;1.00;;;;;;;;5064478;28;45353;-73
2023/08/08 09:18:17;;;;;;;;;1.00;1.00;;;;;;;;5072623;28;45596;-73
2023/08/08 09:20:46;;;;;;;;;2.75;0.75;;;;;;;;5065700;28;45481;-73
2023/08/08 09:23:11;;;;;;;;;0.80;0.80;;;;;;;;5072054;28;45180;-73
2023/08/08 09:25:37;;;;;;;;;2.00;2.00;;;;;;;;5064548;28;45362;-73
2023/08/08 09:28:02;;;;;;;;;1.00;1.00;;;;;;;;5073442;28;45445;-73
2023/08/08 09:30:27;;;;;;;;;0.25;0.25;;;;;;;;5068639;28;45415;-74
2023/08/08 09:32:52;;;;;;;;;2.00;2.00;;;;;;;;5074385;28;45374;-72
2023/08/08 09:35:18;;;;;;;;;0.75;0.75;;;;;;;;5069933;28;45353;-73
2023/08/08 09:37:44;;;;;;;;;1.20;1.20;;;;;;;;5074554;27;45190;-73
2023/08/08 09:40:11;;;;;;;;;1.00;1.00;;;;;;;;5072377;27;45987;-73
2023/08/08 09:42:36;;;;;;;;;0.80;0.80;;;;;;;;5074851;27;45322;-72
2023/08/08 09:45:01;;;;;;;;;2.00;1.00;;;;;;;;5063999;27;45579;-73
2023/08/08 09:47:33;;;;;;;;;2.00;2.00;;;;;;;;5074198;27;45590;-74
2023/08/08 09:50:04;;;;;;;;;1.80;0.00;;;;;;;;5073202;27;45629;-74
2023/08/08 09:52:30;;;;;;;;;1.40;0.80;;;;;;;;5071466;27;45329;-74
2023/08/08 09:54:55;;;;;;;;;1.00;1.00;;;;;;;;5090499;27;45453;-74
2023/08/08 09:57:22;;;;;;;;;5.50;1.00;;;;;;;;5093255;27;45236;-74
2023/08/08 09:59:47;;;;;;;;;0.40;0.40;;;;;;;;5087919;27;45604;-73
2023/08/08 10:02:14;;;;;;;;;1.00;1.00;;;;;;;;5084352;27;45382;-73
2023/08/08 10:04:39;;;;;;;;;3.20;0.20;;;;;;;;5061905;28;45323;-73
2023/08/08 10:07:04;;;;;;;;;3.00;1.50;;;;;;;;5081010;28;45277;-73
2023/08/08 10:09:30;;;;;;;;;2.75;1.00;;;;;;;;5061834;28;45348;-72
2023/08/08 10:11:55;;;;;;;;;3.00;3.00;;;;;;;;5062457;28;45460;-73
2023/08/08 10:14:28;;;;;;;;;4.50;4.50;;;;;;;;5059090;28;45473;-73
2023/08/08 10:16:53;;;;;;;;;1.60;1.20;;;;;;;;5080997;28;45675;-71
2023/08/08 10:19:21;;;;;;;;;2.25;1.00;;;;;;;;5071818;27;45535;-75
2023/08/08 10:21:46;;;;;;;;;2.60;1.40;;;;;;;;5059550;28;45681;-74
2023/08/08 10:24:11;;;;;;;;;1.00;0.25;;;;;;;;5067687;27;45384;-75
2023/08/08 10:26:53;;;;;;;;;1.00;1.00;;;;;;;;5077298;27;45392;-75
2023/08/08 10:29:19;;;;;;;;;1.40;0.20;;;;;;;;5069786;27;45593;-73
2023/08/08 10:31:51;;;;;;;;;0.40;0.40;;;;;;;;5076928;27;45213;-73
2023/08/08 10:34:20;;;;;;;;;0.60;0.60;;;;;;;;5068708;27;45232;-74
2023/08/08 10:36:52;;;;;;;;;2.00;0.80;;;;;;;;5062661;28;45614;-71
2023/08/08 10:39:18;;;;;;;;;0.60;0.60;;;;;;;;5061882;28;47021;-72
2023/08/08 10:41:44;;;;;;;;;1.40;1.40;;;;;;;;5075769;28;45299;-72
2023/08/08 10:44:10;;;;;;;;;0.60;0.60;;;;;;;;5075265;28;45541;-71
2023/08/08 10:46:35;;;;;;;;;1.00;1.00;;;;;;;;5058779;28;45917;-72
2023/08/08 10:49:04;;;;;;;;;1.00;1.00;;;;;;;;5058432;28;48432;-72
2023/08/08 10:51:42;;;;;;;;;1.00;1.00;;;;;;;;5059657;28;45513;-72
2023/08/08 10:54:12;;;;;;;;;1.40;0.20;;;;;;;;5060225;28;45272;-72
2023/08/08 10:56:37;;;;;;;;;0.80;0.80;;;;;;;;5057818;28;46440;-72
2023/08/08 10:59:11;;;;;;;;;1.25;1.25;;;;;;;;5073752;27;45695;-72
2023/08/08 11:01:37;;;;;;;;;0.20;0.20;;;;;;;;5060829;27;46209;-72
2023/08/08 11:04:03;;;;;;;;;1.00;1.00;;;;;;;;5072284;27;45232;-71
2023/08/08 11:06:29;;;;;;;;;1.00;1.00;;;;;;;;5074454;27;45469;-72
2023/08/08 11:08:54;;;;;;;;;3.00;1.75;;;;;;;;5072900;27;46486;-72
2023/08/08 11:11:19;;;;;;;;;1.25;1.25;;;;;;;;5075191;27;45320;-71
2023/08/08 11:13:44;;;;;;;;;2.00;1.25;;;;;;;;5077043;28;45564;-71
2023/08/08 11:16:10;;;;;;;;;1.50;0.25;;;;;;;;5060056;28;46323;-71
2023/08/08 11:18:35;;;;;;;;;0.75;0.75;;;;;;;;5077520;28;46135;-71
2023/08/08 11:21:08;;;;;;;;;0.00;0.00;;;;;;;;5079354;28;45317;-71
2023/08/08 11:23:38;;;;;;;;;0.80;0.80;;;;;;;;5059917;28;45501;-71
2023/08/08 11:26:03;;;;;;;;;2.60;2.00;;;;;;;;5052964;28;46309;-72
2023/08/08 11:28:28;;;;;;;;;3.00;2.00;;;;;;;;5076643;28;45319;-70
2023/08/08 11:30:53;;;;;;;;;3.75;2.25;;;;;;;;5073981;28;45269;-72
2023/08/08 11:33:18;;;;;;;;;3.75;3.75;;;;;;;;5077792;28;45265;-71
2023/08/08 11:35:48;;;;;;;;;1.00;1.00;;;;;;;;5073644;28;45589;-72
2023/08/08 11:38:14;;;;;;;;;1.00;0.20;;;;;;;;5077592;28;46376;-71
2023/08/08 11:40:39;;;;;;;;;1.25;0.25;;;;;;;;5076151;28;45358;-73
2023/08/08 11:43:05;;;;;;;;;1.50;1.00;;;;;;;;5078316;28;45443;-72
2023/08/08 11:45:31;;;;;;;;;0.50;0.50;;;;;;;;5068667;28;45239;-72
2023/08/08 11:47:56;;;;;;;;;0.75;0.75;;;;;;;;5057279;28;46920;-72
2023/08/08 11:50:23;;;;;;;;;2.00;2.00;;;;;;;;5069238;28;45394;-72
2023/08/08 11:52:48;;;;;;;;;1.00;1.00;;;;;;;;5069409;28;45275;-72
2023/08/08 11:55:13;;;;;;;;;1.50;1.00;;;;;;;;5058377;28;45643;-75
2023/08/08 11:57:39;;;;;;;;;3.75;2.25;;;;;;;;5058483;28;47072;-73
2023/08/08 12:00:08;;;;;;;;;2.20;0.80;;;;;;;;5073499;28;45558;-72
2023/08/08 12:02:37;;;;;;;;;2.60;1.60;;;;;;;;5077358;28;45324;-72
2023/08/08 12:05:09;;;;;;;;;0.80;0.80;;;;;;;;5074947;28;45411;-72
2023/08/08 12:07:40;;;;;;;;;2.20;1.00;;;;;;;;5078187;28;46575;-72
2023/08/08 12:10:05;;;;;;;;;1.60;1.60;;;;;;;;5075586;28;45409;-72
2023/08/08 12:12:33;;;;;;;;;1.00;1.00;;;;;;;;5078781;28;45573;-73
2023/08/08 12:14:58;;;;;;;;;4.80;4.80;;;;;;;;5074276;28;45435;-72
2023/08/08 12:17:23;;;;;;;;;0.25;0.25;;;;;;;;5078759;28;45287;-72
2023/08/08 12:19:49;;;;;;;;;0.50;0.25;;;;;;;;5072314;28;45499;-72
2023/08/08 12:22:14;;;;;;;;;1.00;1.00;;;;;;;;5079210;28;45377;-72
2023/08/08 12:24:40;;;;;;;;;1.00;1.00;;;;;;;;5054022;28;46242;-73
2023/08/08 12:27:05;;;;;;;;;0.00;0.00;;;;;;;;5077414;28;45335;-72
2023/08/08 12:29:30;;;;;;;;;1.00;1.00;;;;;;;;5071452;28;45697;-72
2023/08/08 12:31:56;;;;;;;;;0.00;0.00;;;;;;;;5059106;28;45510;-71
2023/08/08 12:34:21;;;;;;;;;2.00;1.25;;;;;;;;5073042;28;45650;-72
2023/08/08 12:36:46;;;;;;;;;0.25;0.25;;;;;;;;5058892;28;46374;-72
2023/08/08 12:39:11;;;;;;;;;0.75;0.75;;;;;;;;5070720;28;45205;-72
2023/08/08 12:41:36;;;;;;;;;1.00;0.25;;;;;;;;5063303;28;45463;-72
2023/08/08 12:44:02;;;;;;;;;0.50;0.50;;;;;;;;5071834;28;45477;-72
2023/08/08 12:46:28;;;;;;;;;0.40;0.40;;;;;;;;5063008;28;46636;-73
2023/08/08 12:48:54;;;;;;;;;1.25;1.25;;;;;;;;5062522;28;45794;-73
2023/08/08 12:51:19;;;;;;;;;0.25;0.25;;;;;;;;5072287;28;45276;-73
2023/08/08 12:53:44;;;;;;;;;0.00;0.00;;;;;;;;5075240;28;45449;-74
2023/08/08 12:56:09;;;;;;;;;2.00;0.75;;;;;;;;5073840;28;46156;-72
2023/08/08 12:58:35;;;;;;;;;0.75;0.75;;;;;;;;5075360;28;45340;-74
2023/08/08 13:01:00;;;;;;;;;1.00;1.00;;;;;;;;5073444;28;45492;-73
2023/08/08 13:03:25;;;;;;;;;0.00;0.00;;;;;;;;5058148;28;46970;-72
2023/08/08 13:05:50;;;;;;;;;1.00;1.00;;;;;;;;5074417;28;45370;-72
2023/08/08 13:08:15;;;;;;;;;0.00;0.00;;;;;;;;5076651;28;45456;-72
2023/08/08 13:10:41;;;;;;;;;1.00;1.00;;;;;;;;5077165;28;45342;-72
2023/08/08 13:13:06;;;;;;;;;0.00;0.00;;;;;;;;5077172;28;45434;-72
2023/08/08 13:15:32;;;;;;;;;1.00;1.00;;;;;;;;5077573;28;45457;-72
2023/08/08 13:17:57;;;;;;;;;1.00;1.00;;;;;;;;5077632;28;45550;-72
2023/08/08 13:20:24;;;;;;;;;1.50;0.50;;;;;;;;5084470;27;45364;-72
2023/08/08 13:22:50;;;;;;;;;1.20;1.00;;;;;;;;5076209;28;45455;-75
2023/08/08 13:25:15;;;;;;;;;2.00;0.75;;;;;;;;5066235;28;46730;-75
2023/08/08 13:27:42;;;;;;;;;0.50;0.50;;;;;;;;5078411;28;45236;-76
2023/08/08 13:30:07;;;;;;;;;0.80;0.40;;;;;;;;5068551;28;45307;-75
2023/08/08 13:32:33;;;;;;;;;0.75;0.75;;;;;;;;5078289;28;45259;-75
2023/08/08 13:34:58;;;;;;;;;3.50;1.00;;;;;;;;5070491;28;46302;-73
2023/08/08 13:37:23;;;;;;;;;0.00;0.00;;;;;;;;5080507;28;45264;-71
2023/08/08 13:39:48;;;;;;;;;1.50;0.00;;;;;;;;5072323;28;45315;-71
2023/08/08 13:42:13;;;;;;;;;1.50;1.50;;;;;;;;5059779;28;45844;-72
2023/08/08 13:44:39;;;;;;;;;4.00;2.25;;;;;;;;5071895;27;45469;-74
2023/08/08 13:47:04;;;;;;;;;0.75;0.75;;;;;;;;5075168;28;45363;-73
2023/08/08 13:49:29;;;;;;;;;3.25;0.75;;;;;;;;5072821;27;45359;-72
2023/08/08 13:51:54;;;;;;;;;2.00;2.00;;;;;;;;5076115;27;45199;-72
2023/08/08 13:54:19;;;;;;;;;1.75;0.50;;;;;;;;5077568;27;45391;-72
2023/08/08 13:56:45;;;;;;;;;2.00;1.50;;;;;;;;5076732;27;45336;-72
2023/08/08 13:59:10;;;;;;;;;0.50;0.50;;;;;;;;5076458;28;45474;-71
2023/08/08 14:01:36;;;;;;;;;3.25;2.00;;;;;;;;5062090;28;46378;-70
2023/08/08 14:04:01;;;;;;;;;11.00;9.50;;;;;;;;5076781;28;46078;-72
2023/08/08 14:06:27;;;;;;;;;0.50;0.50;;;;;;;;5066497;27;45376;-71
2023/08/08 14:08:52;;;;;;;;;3.25;3.25;;;;;;;;5077704;28;45490;-70
2023/08/08 14:11:17;;;;;;;;;0.25;0.25;;;;;;;;5062740;28;45439;-71
2023/08/08 14:13:42;;;;;;;;;2.50;0.75;;;;;;;;5078305;28;45436;-71
2023/08/08 14:16:08;;;;;;;;;1.00;1.00;;;;;;;;5075261;28;45276;-71
2023/08/08 14:18:33;;;;;;;;;2.00;2.00;;;;;;;;5060317;28;45273;-72
2023/08/08 14:20:58;;;;;;;;;0.75;0.75;;;;;;;;5061922;28;45323;-73
2023/08/08 14:23:24;;;;;;;;;4.75;4.75;;;;;;;;5075094;28;46219;-72
2023/08/08 14:25:49;;;;;;;;;1.00;1.00;;;;;;;;5063970;28;45320;-73
2023/08/08 14:28:14;;;;;;;;;1.25;1.25;;;;;;;;5075346;27;45593;-71
2023/08/08 14:30:39;;;;;;;;;0.75;0.25;;;;;;;;5074298;28;45372;-71
2023/08/08 14:33:05;;;;;;;;;1.00;1.00;;;;;;;;5079276;27;46339;-71
2023/08/08 14:35:30;;;;;;;;;1.00;1.00;;;;;;;;5073591;27;45249;-72
2023/08/08 14:37:55;;;;;;;;;0.50;0.25;;;;;;;;5081023;28;45433;-72
2023/08/08 14:40:20;;;;;;;;;0.00;0.00;;;;;;;;5075239;27;45422;-72
2023/08/08 14:42:45;;;;;;;;;1.25;1.00;;;;;;;;5080670;28;45592;-72
2023/08/08 14:45:10;;;;;;;;;0.00;0.00;;;;;;;;5072173;27;45357;-72
2023/08/08 14:47:36;;;;;;;;;0.00;0.00;;;;;;;;5051314;28;45267;-71
2023/08/08 14:50:01;;;;;;;;;0.50;0.50;;;;;;;;5060971;28;46505;-72
2023/08/08 14:52:26;;;;;;;;;0.75;0.75;;;;;;;;5075711;27;45393;-72
2023/08/08 14:54:51;;;;;;;;;1.00;1.00;;;;;;;;5073802;27;45284;-72
2023/08/08 14:57:16;;;;;;;;;2.25;0.50;;;;;;;;5076308;28;45281;-72
2023/08/08 14:59:42;;;;;;;;;0.25;0.25;;;;;;;;5075458;27;45634;-72
2023/08/08 15:02:08;;;;;;;;;1.75;0.00;;;;;;;;5076495;28;45412;-71
2023/08/08 15:04:33;;;;;;;;;0.25;0.25;;;;;;;;5061188;27;45544;-72
2023/08/08 15:06:58;;;;;;;;;0.25;0.25;;;;;;;;5078642;28;45515;-71
2023/08/08 15:09:23;;;;;;;;;0.50;0.50;;;;;;;;5078143;28;45385;-71
2023/08/08 15:11:49;;;;;;;;;0.00;0.00;;;;;;;;5079741;27;45482;-71
2023/08/08 15:14:14;;;;;;;;;1.25;1.00;;;;;;;;5076206;28;45515;-72
2023/08/08 15:16:39;;;;;;;;;0.50;0.50;;;;;;;;5079605;27;45462;-72
2023/08/08 15:19:06;;;;;;;;;1.00;1.00;;;;;;;;5077125;28;45484;-71
2023/08/08 15:21:31;;;;;;;;;1.60;0.20;;;;;;;;5078518;27;46599;-71
2023/08/08 15:23:56;;;;;;;;;0.25;0.25;;;;;;;;5072393;27;45535;-70
2023/08/08 15:26:22;;;;;;;;;2.25;1.00;;;;;;;;5078162;27;45283;-72
2023/08/08 15:28:48;;;;;;;;;0.80;0.80;;;;;;;;5076036;28;45555;-72
2023/08/08 15:31:13;;;;;;;;;1.25;0.25;;;;;;;;5079177;27;45733;-71
2023/08/08 15:33:38;;;;;;;;;0.00;0.00;;;;;;;;5076000;28;45362;-72
2023/08/08 15:36:04;;;;;;;;;1.75;1.25;;;;;;;;5073999;27;45571;-72
2023/08/08 15:38:29;;;;;;;;;1.00;1.00;;;;;;;;5077488;28;45584;-72
2023/08/08 15:40:55;;;;;;;;;2.00;1.00;;;;;;;;5075277;27;46275;-72
2023/08/08 15:43:20;;;;;;;;;1.00;1.00;;;;;;;;5059437;28;45281;-72
2023/08/08 15:45:45;;;;;;;;;0.50;0.50;;;;;;;;5068089;27;45410;-72
2023/08/08 15:48:12;;;;;;;;;0.25;0.25;;;;;;;;5076913;28;45544;-72
2023/08/08 15:50:37;;;;;;;;;0.60;0.00;;;;;;;;5068950;27;46105;-72
2023/08/08 15:53:04;;;;;;;;;0.25;0.25;;;;;;;;5077965;27;45390;-72
2023/08/08 15:55:30;;;;;;;;;1.20;0.20;;;;;;;;5073757;27;45296;-72
2023/08/08 15:57:55;;;;;;;;;0.00;0.00;;;;;;;;5078718;28;45472;-72
2023/08/08 16:00:20;;;;;;;;;0.00;0.00;;;;;;;;5071843;27;46285;-72
2023/08/08 16:02:45;;;;;;;;;2.00;0.25;;;;;;;;5078582;27;45253;-72
2023/08/08 16:05:11;;;;;;;;;1.00;0.75;;;;;;;;5055953;27;45368;-73
2023/08/08 16:07:36;;;;;;;;;1.00;1.00;;;;;;;;5078313;28;45251;-72
2023/08/08 16:10:02;;;;;;;;;1.00;1.00;;;;;;;;5071903;27;46700;-72
2023/08/08 16:12:27;;;;;;;;;0.20;0.20;;;;;;;;5072713;27;45359;-73
2023/08/08 16:14:53;;;;;;;;;0.25;0.25;;;;;;;;5069939;27;45498;-73
2023/08/08 16:17:18;;;;;;;;;1.00;1.00;;;;;;;;5071902;27;45463;-72
2023/08/08 16:19:43;;;;;;;;;0.25;0.25;;;;;;;;5056686;28;47135;-72
2023/08/08 16:22:09;;;;;;;;;0.00;0.00;;;;;;;;5070988;27;45342;-73
2023/08/08 16:24:34;;;;;;;;;1.80;1.80;;;;;;;;5063555;27;45256;-72
2023/08/08 16:27:00;;;;;;;;;2.00;1.00;;;;;;;;5053122;28;45876;-72
2023/08/08 16:29:25;;;;;;;;;0.00;0.00;;;;;;;;5062991;27;45509;-72
2023/08/08 16:31:50;;;;;;;;;1.25;1.00;;;;;;;;5070032;27;45331;-72
2023/08/08 16:34:16;;;;;;;;;0.00;0.00;;;;;;;;5062960;27;45469;-73
2023/08/08 16:36:41;;;;;;;;;0.40;0.20;;;;;;;;5069058;27;45596;-72
2023/08/08 16:39:08;;;;;;;;;2.00;0.25;;;;;;;;5062650;27;46254;-72
2023/08/08 16:41:33;;;;;;;;;1.60;0.00;;;;;;;;5059038;27;45272;-73
2023/08/08 16:44:02;;;;;;;;;1.50;0.00;;;;;;;;5066140;27;45196;-72
2023/08/08 16:46:28;;;;;;;;;1.40;0.40;;;;;;;;5067092;27;45381;-72
2023/08/08 16:48:53;;;;;;;;;1.00;1.00;;;;;;;;5064947;27;46182;-72
2023/08/08 16:51:18;;;;;;;;;1.25;1.00;;;;;;;;5066240;27;45408;-72
2023/08/08 16:53:43;;;;;;;;;0.50;0.50;;;;;;;;5046442;28;45314;-72
2023/08/08 16:56:09;;;;;;;;;0.50;0.50;;;;;;;;5049786;28;46852;-73
2023/08/08 16:58:34;;;;;;;;;2.00;2.00;;;;;;;;5073033;28;45236;-74
2023/08/08 17:00:59;;;;;;;;;2.00;2.00;;;;;;;;5072930;28;45417;-73
2023/08/08 17:03:25;;;;;;;;;0.25;0.25;;;;;;;;5067542;27;45517;-71
2023/08/08 17:05:50;;;;;;;;;0.25;0.25;;;;;;;;5074424;27;45612;-71
2023/08/08 17:08:16;;;;;;;;;0.00;0.00;;;;;;;;5057864;27;46555;-71
2023/08/08 17:10:41;;;;;;;;;2.00;1.00;;;;;;;;5072116;27;45414;-71
2023/08/08 17:13:06;;;;;;;;;1.50;0.75;;;;;;;;5072600;27;45270;-72
2023/08/08 17:15:32;;;;;;;;;3.00;1.00;;;;;;;;5072268;27;45520;-71
2023/08/08 17:17:57;;;;;;;;;6.50;6.50;;;;;;;;5063513;27;46965;-70
2023/08/08 17:20:23;;;;;;;;;0.50;0.50;;;;;;;;5071920;27;45370;-70
2023/08/08 17:22:48;;;;;;;;;1.00;1.00;;;;;;;;5077688;27;45494;-70
2023/08/08 17:25:13;;;;;;;;;0.25;0.25;;;;;;;;5052208;28;45516;-69
2023/08/08 17:27:39;;;;;;;;;1.00;1.00;;;;;;;;5076711;27;45338;-69
2023/08/08 17:30:08;;;;;;;;;1.25;1.25;;;;;;;;5066733;27;45298;-70
2023/08/08 17:32:33;;;;;;;;;3.50;3.00;;;;;;;;5056917;27;45275;-69
2023/08/08 17:34:58;;;;;;;;;21.00;19.00;;;;;;;;5053591;28;47222;-70
2023/08/08 17:37:24;;;;;;;;;12.50;11.50;;;;;;;;5073789;27;45459;-70
2023/08/08 17:39:49;;;;;;;;;0.00;0.00;;;;;;;;5068339;27;45274;-69
2023/08/08 17:42:14;;;;;;;;;1.75;1.75;;;;;;;;5073320;27;45296;-70
2023/08/08 17:44:39;;;;;;;;;2.00;2.00;;;;;;;;5069548;27;45439;-70
2023/08/08 17:47:04;;;;;;;;;4.00;4.00;;;;;;;;5072732;27;46742;-70
2023/08/08 17:49:30;;;;;;;;;14.25;11.75;;;;;;;;5084791;27;45365;-70
2023/08/08 17:51:55;;;;;;;;;4.00;1.75;;;;;;;;5060041;27;45499;-70
2023/08/08 17:54:20;;;;;;;;;2.00;2.00;;;;;;;;5073736;27;45288;-69
2023/08/08 17:56:45;;;;;;;;;3.75;2.75;;;;;;;;5072266;27;45530;-69
2023/08/08 17:59:11;;;;;;;;;1.00;1.00;;;;;;;;5076871;28;45507;-68
2023/08/08 18:01:36;;;;;;;;;3.00;1.50;;;;;;;;5070824;27;45340;-69
2023/08/08 18:04:02;;;;;;;;;2.50;1.50;;;;;;;;5072183;27;45501;-69
2023/08/08 18:06:28;;;;;;;;;1.00;1.00;;;;;;;;5070494;27;46303;-69
2023/08/08 18:08:53;;;;;;;;;1.80;1.80;;;;;;;;5078420;27;45466;-69
2023/08/08 18:11:18;;;;;;;;;1.25;1.25;;;;;;;;5074546;27;45402;-69
2023/08/08 18:13:44;;;;;;;;;1.00;1.00;;;;;;;;5073310;27;45173;-69
2023/08/08 18:16:09;;;;;;;;;1.00;1.00;;;;;;;;5071261;27;45605;-69
2023/08/08 18:18:34;;;;;;;;;3.00;3.00;;;;;;;;5071328;27;45495;-69
2023/08/08 18:20:59;;;;;;;;;1.25;1.25;;;;;;;;5069316;27;45321;-69
2023/08/08 18:23:25;;;;;;;;;2.00;2.00;;;;;;;;5069422;27;46232;-68
2023/08/08 18:25:50;;;;;;;;;2.00;2.00;;;;;;;;5071444;27;46177;-69
2023/08/08 18:28:16;;;;;;;;;0.25;0.25;;;;;;;;5068010;27;45422;-69
2023/08/08 18:30:42;;;;;;;;;1.25;1.25;;;;;;;;5055403;27;45469;-69
2023/08/08 18:33:07;;;;;;;;;1.50;1.50;;;;;;;;5068135;27;45379;-69
2023/08/08 18:35:32;;;;;;;;;3.25;1.00;;;;;;;;5053577;27;46343;-69
2023/08/08 18:37:57;;;;;;;;;4.50;4.00;;;;;;;;5049719;28;45355;-69
2023/08/08 18:40:23;;;;;;;;;3.25;2.00;;;;;;;;5069963;27;45296;-69
2023/08/08 18:42:48;;;;;;;;;2.00;1.75;;;;;;;;5068058;27;45303;-70
2023/08/08 18:45:13;;;;;;;;;3.50;3.25;;;;;;;;5071630;27;45541;-71
2023/08/08 18:47:39;;;;;;;;;4.00;3.00;;;;;;;;5067807;27;45505;-72
2023/08/08 18:50:04;;;;;;;;;2.75;2.75;;;;;;;;5057810;28;45346;-70
2023/08/08 18:52:30;;;;;;;;;1.00;1.00;;;;;;;;5086782;27;45564;-71
2023/08/08 18:54:55;;;;;;;;;1.00;1.00;;;;;;;;5069556;27;46709;-70
2023/08/08 18:57:20;;;;;;;;;4.25;1.25;;;;;;;;5070179;28;45350;-69
2023/08/08 18:59:45;;;;;;;;;1.00;1.00;;;;;;;;5071748;27;45429;-69
2023/08/08 19:02:11;;;;;;;;;3.00;3.00;;;;;;;;5067618;27;45604;-69
2023/08/08 19:04:36;;;;;;;;;2.75;2.75;;;;;;;;5059397;27;47367;-71
2023/08/08 19:07:01;;;;;;;;;2.50;2.25;;;;;;;;5071565;27;45457;-70
2023/08/08 19:09:26;;;;;;;;;2.50;2.50;;;;;;;;5077569;27;45398;-70
2023/08/08 19:11:51;;;;;;;;;2.00;2.00;;;;;;;;5068380;28;45323;-71
2023/08/08 19:14:16;;;;;;;;;2.50;2.50;;;;;;;;5074193;27;46378;-71
2023/08/08 19:16:42;;;;;;;;;6.25;2.00;;;;;;;;5066949;27;45308;-70
2023/08/08 19:19:07;;;;;;;;;1.75;1.75;;;;;;;;5073094;27;45480;-71
2023/08/08 19:21:33;;;;;;;;;5.00;5.00;;;;;;;;5066265;27;45387;-71
2023/08/08 19:23:58;;;;;;;;;3.25;2.25;;;;;;;;5050549;28;46679;-69
2023/08/08 19:26:23;;;;;;;;;3.50;2.50;;;;;;;;5066068;28;45403;-70
2023/08/08 19:28:48;;;;;;;;;3.75;3.25;;;;;;;;5050240;27;45385;-69
2023/08/08 19:31:14;;;;;;;;;1.75;1.75;;;;;;;;5065470;27;45457;-69
2023/08/08 19:33:39;;;;;;;;;4.00;2.00;;;;;;;;5067513;27;45557;-69
2023/08/08 19:36:07;;;;;;;;;3.25;1.75;;;;;;;;5064290;27;45505;-70
2023/08/08 19:38:32;;;;;;;;;2.00;2.00;;;;;;;;5067884;27;45466;-70
2023/08/08 19:40:57;;;;;;;;;4.00;2.25;;;;;;;;5067024;27;46079;-70
2023/08/08 19:43:22;;;;;;;;;2.75;2.75;;;;;;;;5067352;27;45506;-69
2023/08/08 19:45:48;;;;;;;;;8.75;6.50;;;;;;;;5068072;28;45354;-69
2023/08/08 19:48:13;;;;;;;;;4.00;3.00;;;;;;;;5050087;27;45339;-69
2023/08/08 19:50:40;;;;;;;;;2.00;2.00;;;;;;;;5065508;27;45382;-69
2023/08/08 19:53:05;;;;;;;;;1.25;1.25;;;;;;;;5066741;27;45370;-69
2023/08/08 19:55:30;;;;;;;;;4.00;1.00;;;;;;;;5065518;28;45426;-69
